sensor_id;sensor_type;location;lat;lon;timestamp;pressure;altitude;pressure_sealevel;temperature;humidity
71716;BME280;59568;52.128;5.434;2023-07-31T00:00:03;101052.31;;;14.82;100.00
71716;BME280;59568;52.128;5.434;2023-07-31T00:02:34;101054.94;;;14.82;100.00
71716;BME280;59568;52.128;5.434;2023-07-31T00:05:02;101064.53;;;14.95;100.00
71716;BME280;59568;52.128;5.434;2023-07-31T00:07:37;101058.66;;;14.98;100.00
71716;BME280;59568;52.128;5.434;2023-07-31T00:10:06;101055.72;;;15.00;100.00
71716;BME280;59568;52.128;5.434;2023-07-31T00:12:40;101051.53;;;14.98;100.00
71716;BME280;59568;52.128;5.434;2023-07-31T00:15:11;101023.22;;;14.95;100.00
71716;BME280;59568;52.128;5.434;2023-07-31T00:17:42;101021.81;;;14.98;100.00
71716;BME280;59568;52.128;5.434;2023-07-31T00:20:12;101015.00;;;14.97;100.00
71716;BME280;59568;52.128;5.434;2023-07-31T00:22:49;101011.28;;;14.98;100.00
71716;BME280;59568;52.128;5.434;2023-07-31T00:25:16;101015.31;;;15.04;100.00
71716;BME280;59568;52.128;5.434;2023-07-31T00:27:44;101023.84;;;15.01;100.00
71716;BME280;59568;52.128;5.434;2023-07-31T00:30:14;101017.78;;;15.01;100.00
71716;BME280;59568;52.128;5.434;2023-07-31T00:32:46;101014.38;;;15.00;100.00
71716;BME280;59568;52.128;5.434;2023-07-31T00:35:15;101020.41;;;15.01;100.00
71716;BME280;59568;52.128;5.434;2023-07-31T00:37:44;101016.25;;;15.00;100.00
71716;BME280;59568;52.128;5.434;2023-07-31T00:40:11;101008.81;;;15.02;100.00
71716;BME280;59568;52.128;5.434;2023-07-31T00:42:47;101008.50;;;15.03;100.00
71716;BME280;59568;52.128;5.434;2023-07-31T00:45:14;101008.50;;;15.03;100.00
71716;BME280;59568;52.128;5.434;2023-07-31T00:47:47;100997.34;;;15.06;100.00
71716;BME280;59568;52.128;5.434;2023-07-31T00:50:17;100995.03;;;15.13;100.00
71716;BME280;59568;52.128;5.434;2023-07-31T00:52:46;100989.44;;;15.15;100.00
71716;BME280;59568;52.128;5.434;2023-07-31T00:55:13;100988.97;;;15.22;100.00
71716;BME280;59568;52.128;5.434;2023-07-31T00:57:45;100995.16;;;15.26;100.00
71716;BME280;59568;52.128;5.434;2023-07-31T01:00:12;100997.00;;;15.34;100.00
71716;BME280;59568;52.128;5.434;2023-07-31T01:02:42;100989.38;;;15.41;100.00
71716;BME280;59568;52.128;5.434;2023-07-31T01:05:25;100994.50;;;15.46;100.00
71716;BME280;59568;52.128;5.434;2023-07-31T01:08:36;100995.41;;;15.50;100.00
71716;BME280;59568;52.128;5.434;2023-07-31T01:11:14;100992.16;;;15.53;100.00
71716;BME280;59568;52.128;5.434;2023-07-31T01:13:44;100983.63;;;15.56;100.00
71716;BME280;59568;52.128;5.434;2023-07-31T01:16:13;100981.13;;;15.60;100.00
71716;BME280;59568;52.128;5.434;2023-07-31T01:18:41;100988.38;;;15.63;100.00
71716;BME280;59568;52.128;5.434;2023-07-31T01:21:22;101001.09;;;15.70;100.00
71716;BME280;59568;52.128;5.434;2023-07-31T01:26:59;100996.91;;;15.77;100.00
71716;BME280;59568;52.128;5.434;2023-07-31T01:32:40;100988.38;;;15.72;100.00
71716;BME280;59568;52.128;5.434;2023-07-31T01:35:09;100991.63;;;15.69;100.00
71716;BME280;59568;52.128;5.434;2023-07-31T01:37:40;100978.31;;;15.65;100.00
71716;BME280;59568;52.128;5.434;2023-07-31T01:40:09;100993.81;;;15.67;100.00
71716;BME280;59568;52.128;5.434;2023-07-31T01:42:36;100990.09;;;15.68;100.00
71716;BME280;59568;52.128;5.434;2023-07-31T01:45:05;100997.34;;;15.71;100.00
71716;BME280;59568;52.128;5.434;2023-07-31T01:47:42;100989.75;;;15.69;100.00
71716;BME280;59568;52.128;5.434;2023-07-31T01:50:12;100984.81;;;15.68;100.00
71716;BME280;59568;52.128;5.434;2023-07-31T01:52:44;100984.81;;;15.68;100.00
71716;BME280;59568;52.128;5.434;2023-07-31T01:55:21;100980.31;;;15.68;100.00
71716;BME280;59568;52.128;5.434;2023-07-31T01:57:49;100974.28;;;15.68;100.00
71716;BME280;59568;52.128;5.434;2023-07-31T02:00:30;100980.00;;;15.70;100.00
71716;BME280;59568;52.128;5.434;2023-07-31T02:03:07;100978.16;;;15.70;100.00
71716;BME280;59568;52.128;5.434;2023-07-31T02:05:49;100978.91;;;15.71;100.00
71716;BME280;59568;52.128;5.434;2023-07-31T02:08:17;100970.56;;;15.69;100.00
71716;BME280;59568;52.128;5.434;2023-07-31T02:10:45;100958.47;;;15.68;100.00
71716;BME280;59568;52.128;5.434;2023-07-31T02:13:13;100966.03;;;15.69;100.00
71716;BME280;59568;52.128;5.434;2023-07-31T02:15:41;100955.50;;;15.69;100.00
71716;BME280;59568;52.128;5.434;2023-07-31T02:18:10;100954.75;;;15.69;100.00
71716;BME280;59568;52.128;5.434;2023-07-31T02:20:38;100945.94;;;15.65;100.00
71716;BME280;59568;52.128;5.434;2023-07-31T02:23:07;100947.50;;;15.66;100.00
71716;BME280;59568;52.128;5.434;2023-07-31T02:25:36;100936.81;;;15.62;100.00
71716;BME280;59568;52.128;5.434;2023-07-31T02:28:11;100940.22;;;15.63;100.00
71716;BME280;59568;52.128;5.434;2023-07-31T02:30:44;100938.69;;;15.62;100.00
71716;BME280;59568;52.128;5.434;2023-07-31T02:33:15;100932.63;;;15.61;100.00
71716;BME280;59568;52.128;5.434;2023-07-31T02:35:46;100929.97;;;15.61;100.00
71716;BME280;59568;52.128;5.434;2023-07-31T02:38:13;100934.47;;;15.61;100.00
71716;BME280;59568;52.128;5.434;2023-07-31T02:40:40;100934.47;;;15.61;100.00
71716;BME280;59568;52.128;5.434;2023-07-31T02:43:10;100932.63;;;15.61;100.00
71716;BME280;59568;52.128;5.434;2023-07-31T02:45:37;100935.25;;;15.61;100.00
71716;BME280;59568;52.128;5.434;2023-07-31T02:48:04;100942.38;;;15.61;100.00
71716;BME280;59568;52.128;5.434;2023-07-31T02:50:34;100935.59;;;15.60;100.00
71716;BME280;59568;52.128;5.434;2023-07-31T02:53:04;100933.72;;;15.60;100.00
71716;BME280;59568;52.128;5.434;2023-07-31T02:55:35;100928.75;;;15.58;100.00
71716;BME280;59568;52.128;5.434;2023-07-31T02:58:02;100929.53;;;15.59;100.00
71716;BME280;59568;52.128;5.434;2023-07-31T03:00:29;100912.97;;;15.58;100.00
71716;BME280;59568;52.128;5.434;2023-07-31T03:02:56;100916.34;;;15.59;100.00
71716;BME280;59568;52.128;5.434;2023-07-31T03:05:23;100917.91;;;15.60;100.00
71716;BME280;59568;52.128;5.434;2023-07-31T03:07:50;100922.06;;;15.61;100.00
71716;BME280;59568;52.128;5.434;2023-07-31T03:10:17;100921.31;;;15.61;100.00
71716;BME280;59568;52.128;5.434;2023-07-31T03:12:50;100920.25;;;15.62;100.00
71716;BME280;59568;52.128;5.434;2023-07-31T03:15:20;100930.31;;;15.60;100.00
71716;BME280;59568;52.128;5.434;2023-07-31T03:17:47;100924.59;;;15.57;100.00
71716;BME280;59568;52.128;5.434;2023-07-31T03:20:15;100915.13;;;15.56;100.00
71716;BME280;59568;52.128;5.434;2023-07-31T03:22:48;100911.72;;;15.56;100.00
71716;BME280;59568;52.128;5.434;2023-07-31T03:25:15;100921.97;;;15.57;100.00
71716;BME280;59568;52.128;5.434;2023-07-31T03:27:44;100918.88;;;15.55;100.00
71716;BME280;59568;52.128;5.434;2023-07-31T03:30:14;100918.88;;;15.55;100.00
71716;BME280;59568;52.128;5.434;2023-07-31T03:32:40;100914.69;;;15.54;100.00
71716;BME280;59568;52.128;5.434;2023-07-31T03:35:07;100915.78;;;15.53;100.00
71716;BME280;59568;52.128;5.434;2023-07-31T03:37:34;100917.63;;;15.53;100.00
71716;BME280;59568;52.128;5.434;2023-07-31T03:40:01;100911.28;;;15.54;100.00
71716;BME280;59568;52.128;5.434;2023-07-31T03:42:27;100921.34;;;15.52;100.00
71716;BME280;59568;52.128;5.434;2023-07-31T03:44:55;100918.56;;;15.48;100.00
71716;BME280;59568;52.128;5.434;2023-07-31T03:47:21;100911.75;;;15.47;100.00
71716;BME280;59568;52.128;5.434;2023-07-31T03:49:48;100913.63;;;15.47;100.00
71716;BME280;59568;52.128;5.434;2023-07-31T03:52:15;100916.25;;;15.47;100.00
71716;BME280;59568;52.128;5.434;2023-07-31T03:54:41;100915.50;;;15.46;100.00
71716;BME280;59568;52.128;5.434;2023-07-31T03:57:11;100916.25;;;15.47;100.00
71716;BME280;59568;52.128;5.434;2023-07-31T03:59:37;100918.56;;;15.48;100.00
71716;BME280;59568;52.128;5.434;2023-07-31T04:02:06;100905.72;;;15.47;100.00
71716;BME280;59568;52.128;5.434;2023-07-31T04:04:33;100904.94;;;15.46;100.00
71716;BME280;59568;52.128;5.434;2023-07-31T04:07:01;100902.94;;;15.43;100.00
71716;BME280;59568;52.128;5.434;2023-07-31T04:09:28;100895.38;;;15.42;100.00
71716;BME280;59568;52.128;5.434;2023-07-31T04:11:55;100895.69;;;15.40;100.00
71716;BME280;59568;52.128;5.434;2023-07-31T04:14:22;100885.78;;;15.37;100.00
71716;BME280;59568;52.128;5.434;2023-07-31T04:16:50;100884.69;;;15.38;100.00
71716;BME280;59568;52.128;5.434;2023-07-31T04:19:17;100877.41;;;15.35;100.00
71716;BME280;59568;52.128;5.434;2023-07-31T04:21:44;100886.88;;;15.36;100.00
71716;BME280;59568;52.128;5.434;2023-07-31T04:24:11;100869.06;;;15.33;100.00
71716;BME280;59568;52.128;5.434;2023-07-31T04:26:37;100857.47;;;15.34;100.00
71716;BME280;59568;52.128;5.434;2023-07-31T04:29:05;100861.50;;;15.31;100.00
71716;BME280;59568;52.128;5.434;2023-07-31T04:31:32;100866.44;;;15.33;100.00
71716;BME280;59568;52.128;5.434;2023-07-31T04:34:00;100869.84;;;15.33;100.00
71716;BME280;59568;52.128;5.434;2023-07-31T04:36:27;100867.22;;;15.33;100.00
71716;BME280;59568;52.128;5.434;2023-07-31T04:38:54;100880.38;;;15.33;100.00
71716;BME280;59568;52.128;5.434;2023-07-31T04:41:20;100876.19;;;15.32;100.00
71716;BME280;59568;52.128;5.434;2023-07-31T04:43:47;100881.78;;;15.31;100.00
71716;BME280;59568;52.128;5.434;2023-07-31T04:46:14;100878.06;;;15.32;100.00
71716;BME280;59568;52.128;5.434;2023-07-31T04:48:41;100869.06;;;15.33;100.00
71716;BME280;59568;52.128;5.434;2023-07-31T04:51:08;100875.88;;;15.34;100.00
71716;BME280;59568;52.128;5.434;2023-07-31T04:53:35;100865.66;;;15.32;100.00
71716;BME280;59568;52.128;5.434;2023-07-31T04:56:02;100871.69;;;15.33;100.00
71716;BME280;59568;52.128;5.434;2023-07-31T04:58:29;100858.53;;;15.33;100.00
71716;BME280;59568;52.128;5.434;2023-07-31T05:00:55;100859.63;;;15.32;100.00
71716;BME280;59568;52.128;5.434;2023-07-31T05:03:22;100858.53;;;15.33;100.00
71716;BME280;59568;52.128;5.434;2023-07-31T05:05:51;100849.41;;;15.30;100.00
71716;BME280;59568;52.128;5.434;2023-07-31T05:08:17;100858.09;;;15.31;100.00
71716;BME280;59568;52.128;5.434;2023-07-31T05:10:44;100846.03;;;15.30;100.00
71716;BME280;59568;52.128;5.434;2023-07-31T05:13:11;100841.97;;;15.32;100.00
71716;BME280;59568;52.128;5.434;2023-07-31T05:15:37;100848.47;;;15.35;100.00
71716;BME280;59568;52.128;5.434;2023-07-31T05:18:04;100848.16;;;15.36;100.00
71716;BME280;59568;52.128;5.434;2023-07-31T05:20:31;100845.81;;;15.35;100.00
71716;BME280;59568;52.128;5.434;2023-07-31T05:22:59;100844.75;;;15.36;100.00
71716;BME280;59568;52.128;5.434;2023-07-31T05:25:25;100848.16;;;15.36;100.00
71716;BME280;59568;52.128;5.434;2023-07-31T05:27:52;100845.06;;;15.34;100.00
71716;BME280;59568;52.128;5.434;2023-07-31T05:30:19;100840.44;;;15.31;100.00
71716;BME280;59568;52.128;5.434;2023-07-31T05:32:46;100843.53;;;15.33;100.00
71716;BME280;59568;52.128;5.434;2023-07-31T05:35:12;100842.75;;;15.33;100.00
71716;BME280;59568;52.128;5.434;2023-07-31T05:37:39;100831.44;;;15.32;100.00
71716;BME280;59568;52.128;5.434;2023-07-31T05:40:06;100828.50;;;15.34;100.00
71716;BME280;59568;52.128;5.434;2023-07-31T05:42:33;100830.03;;;15.35;100.00
71716;BME280;59568;52.128;5.434;2023-07-31T05:45:01;100830.47;;;15.37;100.00
71716;BME280;59568;52.128;5.434;2023-07-31T05:47:27;100819.19;;;15.36;100.00
71716;BME280;59568;52.128;5.434;2023-07-31T05:49:54;100813.00;;;15.32;100.00
71716;BME280;59568;52.128;5.434;2023-07-31T05:52:20;100809.63;;;15.32;100.00
71716;BME280;59568;52.128;5.434;2023-07-31T05:54:47;100815.66;;;15.32;100.00
71716;BME280;59568;52.128;5.434;2023-07-31T05:57:14;100808.50;;;15.33;100.00
71716;BME280;59568;52.128;5.434;2023-07-31T05:59:40;100802.78;;;15.31;100.00
71716;BME280;59568;52.128;5.434;2023-07-31T06:02:07;100798.44;;;15.35;100.00
71716;BME280;59568;52.128;5.434;2023-07-31T06:04:33;100796.91;;;15.34;100.00
71716;BME280;59568;52.128;5.434;2023-07-31T06:07:00;100796.72;;;15.39;100.00
71716;BME280;59568;52.128;5.434;2023-07-31T06:09:27;100789.47;;;15.36;100.00
71716;BME280;59568;52.128;5.434;2023-07-31T06:11:53;100796.25;;;15.37;100.00
71716;BME280;59568;52.128;5.434;2023-07-31T06:14:20;100797.06;;;15.37;100.00
71716;BME280;59568;52.128;5.434;2023-07-31T06:16:47;100789.16;;;15.37;100.00
71716;BME280;59568;52.128;5.434;2023-07-31T06:19:13;100790.69;;;15.38;100.00
71716;BME280;59568;52.128;5.434;2023-07-31T06:21:40;100788.81;;;15.39;100.00
71716;BME280;59568;52.128;5.434;2023-07-31T06:24:09;100774.13;;;15.38;100.00
71716;BME280;59568;52.128;5.434;2023-07-31T06:26:36;100787.59;;;15.36;100.00
71716;BME280;59568;52.128;5.434;2023-07-31T06:29:03;100787.59;;;15.36;100.00
71716;BME280;59568;52.128;5.434;2023-07-31T06:31:30;100784.34;;;15.40;100.00
71716;BME280;59568;52.128;5.434;2023-07-31T06:33:57;100775.34;;;15.41;100.00
71716;BME280;59568;52.128;5.434;2023-07-31T06:36:23;100785.88;;;15.41;100.00
71716;BME280;59568;52.128;5.434;2023-07-31T06:38:51;100772.38;;;15.42;100.00
71716;BME280;59568;52.128;5.434;2023-07-31T06:41:17;100772.38;;;15.42;100.00
71716;BME280;59568;52.128;5.434;2023-07-31T06:43:44;100766.47;;;15.45;100.00
71716;BME280;59568;52.128;5.434;2023-07-31T06:46:10;100762.44;;;15.48;100.00
71716;BME280;59568;52.128;5.434;2023-07-31T06:48:38;100764.75;;;15.49;100.00
71716;BME280;59568;52.128;5.434;2023-07-31T06:51:04;100753.56;;;15.52;100.00
71716;BME280;59568;52.128;5.434;2023-07-31T06:53:31;100758.22;;;15.55;100.00
71716;BME280;59568;52.128;5.434;2023-07-31T06:55:58;100750.41;;;15.59;100.00
71716;BME280;59568;52.128;5.434;2023-07-31T06:58:24;100751.22;;;15.60;100.00
71716;BME280;59568;52.128;5.434;2023-07-31T07:00:51;100746.84;;;15.64;100.00
71716;BME280;59568;52.128;5.434;2023-07-31T07:03:18;100741.06;;;15.70;100.00
71716;BME280;59568;52.128;5.434;2023-07-31T07:05:45;100740.28;;;15.70;100.00
71716;BME280;59568;52.128;5.434;2023-07-31T07:08:12;100744.94;;;15.73;100.00
71716;BME280;59568;52.128;5.434;2023-07-31T07:10:39;100739.03;;;15.76;100.00
71716;BME280;59568;52.128;5.434;2023-07-31T07:13:06;100743.19;;;15.77;100.00
71716;BME280;59568;52.128;5.434;2023-07-31T07:15:32;100733.09;;;15.79;100.00
71716;BME280;59568;52.128;5.434;2023-07-31T07:17:59;100742.25;;;15.82;100.00
71716;BME280;59568;52.128;5.434;2023-07-31T07:20:26;100739.25;;;15.83;100.00
71716;BME280;59568;52.128;5.434;2023-07-31T07:22:52;100734.00;;;15.83;100.00
71716;BME280;59568;52.128;5.434;2023-07-31T07:25:19;100727.19;;;15.82;100.00
71716;BME280;59568;52.128;5.434;2023-07-31T07:27:46;100729.19;;;15.85;100.00
71716;BME280;59568;52.128;5.434;2023-07-31T07:30:13;100726.53;;;15.85;100.00
71716;BME280;59568;52.128;5.434;2023-07-31T07:32:40;100722.16;;;15.89;100.00
71716;BME280;59568;52.128;5.434;2023-07-31T07:35:07;100738.41;;;15.91;100.00
71716;BME280;59568;52.128;5.434;2023-07-31T07:37:34;100735.78;;;15.91;100.00
71716;BME280;59568;52.128;5.434;2023-07-31T07:40:00;100727.69;;;15.96;100.00
71716;BME280;59568;52.128;5.434;2023-07-31T07:42:27;100727.03;;;16.00;100.00
71716;BME280;59568;52.128;5.434;2023-07-31T07:44:54;100731.66;;;16.03;100.00
71716;BME280;59568;52.128;5.434;2023-07-31T07:47:20;100728.84;;;16.08;100.00
71716;BME280;59568;52.128;5.434;2023-07-31T07:49:51;100724.34;;;16.08;100.00
71716;BME280;59568;52.128;5.434;2023-07-31T07:52:18;100722.28;;;16.14;100.00
71716;BME280;59568;52.128;5.434;2023-07-31T07:54:45;100723.03;;;16.14;100.00
71716;BME280;59568;52.128;5.434;2023-07-31T07:57:12;100719.41;;;16.19;100.00
71716;BME280;59568;52.128;5.434;2023-07-31T07:59:40;100719.66;;;16.26;100.00
71716;BME280;59568;52.128;5.434;2023-07-31T08:02:08;100720.09;;;16.28;100.00
71716;BME280;59568;52.128;5.434;2023-07-31T08:04:35;100720.88;;;16.29;100.00
71716;BME280;59568;52.128;5.434;2023-07-31T08:07:02;100719.00;;;16.29;100.00
71716;BME280;59568;52.128;5.434;2023-07-31T08:09:28;100716.03;;;16.31;100.00
71716;BME280;59568;52.128;5.434;2023-07-31T08:11:55;100706.06;;;16.36;100.00
71716;BME280;59568;52.128;5.434;2023-07-31T08:14:24;100704.19;;;16.37;100.00
71716;BME280;59568;52.128;5.434;2023-07-31T08:16:50;100708.81;;;16.40;100.00
71716;BME280;59568;52.128;5.434;2023-07-31T08:19:17;100687.50;;;16.45;100.00
71716;BME280;59568;52.128;5.434;2023-07-31T08:21:44;100701.88;;;16.48;100.00
71716;BME280;59568;52.128;5.434;2023-07-31T08:24:11;100697.47;;;16.52;100.00
71716;BME280;59568;52.128;5.434;2023-07-31T08:26:38;100698.84;;;16.58;100.00
71716;BME280;59568;52.128;5.434;2023-07-31T08:29:05;100702.34;;;16.62;100.00
71716;BME280;59568;52.128;5.434;2023-07-31T08:31:32;100699.03;;;16.65;100.00
71716;BME280;59568;52.128;5.434;2023-07-31T08:33:58;100701.34;;;16.67;100.00
71716;BME280;59568;52.128;5.434;2023-07-31T08:36:25;100695.53;;;16.73;100.00
71716;BME280;59568;52.128;5.434;2023-07-31T08:38:56;100695.63;;;16.77;100.00
71716;BME280;59568;52.128;5.434;2023-07-31T08:41:25;100695.75;;;16.81;100.00
71716;BME280;59568;52.128;5.434;2023-07-31T08:43:53;100689.84;;;16.84;100.00
71716;BME280;59568;52.128;5.434;2023-07-31T08:46:21;100687.75;;;16.89;100.00
71716;BME280;59568;52.128;5.434;2023-07-31T08:52:00;100688.63;;;16.93;100.00
71716;BME280;59568;52.128;5.434;2023-07-31T08:54:45;100683.66;;;17.04;100.00
71716;BME280;59568;52.128;5.434;2023-07-31T08:57:12;100691.25;;;17.06;100.00
71716;BME280;59568;52.128;5.434;2023-07-31T08:59:46;100685.19;;;17.05;100.00
71716;BME280;59568;52.128;5.434;2023-07-31T09:02:18;100688.28;;;17.07;100.00
71716;BME280;59568;52.128;5.434;2023-07-31T09:04:46;100693.09;;;17.17;100.00
71716;BME280;59568;52.128;5.434;2023-07-31T09:07:21;100690.25;;;17.23;100.00
71716;BME280;59568;52.128;5.434;2023-07-31T09:09:48;100690.56;;;17.21;100.00
71716;BME280;59568;52.128;5.434;2023-07-31T09:12:16;100692.53;;;17.24;100.00
71716;BME280;59568;52.128;5.434;2023-07-31T09:14:45;100687.78;;;17.30;100.00
71716;BME280;59568;52.128;5.434;2023-07-31T09:17:13;100687.13;;;17.33;100.00
71716;BME280;59568;52.128;5.434;2023-07-31T09:19:40;100700.34;;;17.33;100.00
71716;BME280;59568;52.128;5.434;2023-07-31T09:22:07;100692.75;;;17.31;100.00
71716;BME280;59568;52.128;5.434;2023-07-31T09:24:34;100686.16;;;17.25;100.00
71716;BME280;59568;52.128;5.434;2023-07-31T09:27:01;100679.69;;;17.23;100.00
71716;BME280;59568;52.128;5.434;2023-07-31T09:29:28;100685.19;;;17.17;100.00
71716;BME280;59568;52.128;5.434;2023-07-31T09:31:56;100688.69;;;17.22;100.00
71716;BME280;59568;52.128;5.434;2023-07-31T09:34:30;100682.19;;;17.31;100.00
71716;BME280;59568;52.128;5.434;2023-07-31T09:36:59;100683.16;;;17.39;100.00
71716;BME280;59568;52.128;5.434;2023-07-31T09:39:29;100683.25;;;17.43;100.00
71716;BME280;59568;52.128;5.434;2023-07-31T09:42:01;100674.25;;;17.31;100.00
71716;BME280;59568;52.128;5.434;2023-07-31T09:44:46;100675.13;;;17.35;100.00
71716;BME280;59568;52.128;5.434;2023-07-31T09:47:23;100670.56;;;17.48;100.00
71716;BME280;59568;52.128;5.434;2023-07-31T09:49:53;100678.91;;;17.63;100.00
71716;BME280;59568;52.128;5.434;2023-07-31T09:52:20;100675.34;;;17.71;100.00
71716;BME280;59568;52.128;5.434;2023-07-31T09:54:48;100669.78;;;17.76;100.00
71716;BME280;59568;52.128;5.434;2023-07-31T09:57:21;100672.69;;;17.71;100.00
71716;BME280;59568;52.128;5.434;2023-07-31T10:00:01;100672.69;;;17.71;100.00
71716;BME280;59568;52.128;5.434;2023-07-31T10:02:29;100678.41;;;17.73;100.00
71716;BME280;59568;52.128;5.434;2023-07-31T10:04:57;100672.69;;;17.71;100.00
71716;BME280;59568;52.128;5.434;2023-07-31T10:07:30;100665.38;;;17.80;100.00
71716;BME280;59568;52.128;5.434;2023-07-31T10:09:59;100668.75;;;17.93;100.00
71716;BME280;59568;52.128;5.434;2023-07-31T10:12:39;100666.97;;;17.97;100.00
71716;BME280;59568;52.128;5.434;2023-07-31T10:15:06;100660.03;;;17.92;100.00
71716;BME280;59568;52.128;5.434;2023-07-31T10:17:35;100667.97;;;17.92;100.00
71716;BME280;59568;52.128;5.434;2023-07-31T10:20:04;100671.41;;;17.81;100.00
71716;BME280;59568;52.128;5.434;2023-07-31T10:22:36;100676.63;;;17.77;100.00
71716;BME280;59568;52.128;5.434;2023-07-31T10:25:04;100674.47;;;17.83;100.00
71716;BME280;59568;52.128;5.434;2023-07-31T10:27:35;100679.34;;;17.81;100.00
71716;BME280;59568;52.128;5.434;2023-07-31T10:30:03;100666.91;;;17.81;100.00
71716;BME280;59568;52.128;5.434;2023-07-31T10:32:31;100676.63;;;17.77;100.00
71716;BME280;59568;52.128;5.434;2023-07-31T10:35:01;100678.41;;;17.73;100.00
71716;BME280;59568;52.128;5.434;2023-07-31T10:37:49;100677.13;;;17.67;100.00
71716;BME280;59568;52.128;5.434;2023-07-31T10:40:26;100676.19;;;17.75;100.00
71716;BME280;59568;52.128;5.434;2023-07-31T10:42:56;100669.31;;;17.86;100.00
71716;BME280;59568;52.128;5.434;2023-07-31T10:45:45;100677.44;;;17.93;100.00
71716;BME280;59568;52.128;5.434;2023-07-31T10:48:17;100673.34;;;17.96;100.00
71716;BME280;59568;52.128;5.434;2023-07-31T10:51:12;100665.09;;;17.98;100.00
71716;BME280;59568;52.128;5.434;2023-07-31T10:53:42;100669.78;;;18.04;100.00
71716;BME280;59568;52.128;5.434;2023-07-31T10:56:14;100679.00;;;18.10;100.00
71716;BME280;59568;52.128;5.434;2023-07-31T10:59:05;100670.53;;;18.05;100.00
71716;BME280;59568;52.128;5.434;2023-07-31T11:01:56;100669.53;;;18.09;100.00
71716;BME280;59568;52.128;5.434;2023-07-31T11:04:26;100661.31;;;17.99;100.00
71716;BME280;59568;52.128;5.434;2023-07-31T11:07:01;100666.81;;;18.06;100.00
71716;BME280;59568;52.128;5.434;2023-07-31T11:09:32;100671.41;;;18.09;100.00
71716;BME280;59568;52.128;5.434;2023-07-31T11:12:09;100682.59;;;18.18;100.00
71716;BME280;59568;52.128;5.434;2023-07-31T11:15:10;100673.19;;;18.21;100.00
71716;BME280;59568;52.128;5.434;2023-07-31T11:17:41;100666.72;;;18.18;100.00
71716;BME280;59568;52.128;5.434;2023-07-31T11:20:11;100677.56;;;18.13;100.00
71716;BME280;59568;52.128;5.434;2023-07-31T11:22:37;100667.00;;;18.13;100.00
71716;BME280;59568;52.128;5.434;2023-07-31T11:25:04;100661.59;;;18.09;100.00
71716;BME280;59568;52.128;5.434;2023-07-31T11:27:38;100665.09;;;18.13;100.00
71716;BME280;59568;52.128;5.434;2023-07-31T11:30:07;100668.84;;;18.12;100.00
71716;BME280;59568;52.128;5.434;2023-07-31T11:32:38;100666.81;;;18.06;100.00
71716;BME280;59568;52.128;5.434;2023-07-31T11:35:13;100664.34;;;18.13;100.00
71716;BME280;59568;52.128;5.434;2023-07-31T11:37:43;100656.47;;;18.16;100.00
71716;BME280;59568;52.128;5.434;2023-07-31T11:40:16;100674.22;;;18.16;100.00
71716;BME280;59568;52.128;5.434;2023-07-31T11:42:42;100664.34;;;18.13;100.00
71716;BME280;59568;52.128;5.434;2023-07-31T11:45:09;100664.78;;;18.15;100.00
71716;BME280;59568;52.128;5.434;2023-07-31T11:47:37;100671.16;;;18.14;100.00
71716;BME280;59568;52.128;5.434;2023-07-31T11:50:06;100668.31;;;18.07;100.00
71716;BME280;59568;52.128;5.434;2023-07-31T11:52:40;100663.31;;;18.02;100.00
71716;BME280;59568;52.128;5.434;2023-07-31T11:55:12;100658.00;;;18.02;100.00
71716;BME280;59568;52.128;5.434;2023-07-31T11:57:40;100652.22;;;17.96;100.00
71716;BME280;59568;52.128;5.434;2023-07-31T12:00:09;100651.69;;;17.90;100.00
71716;BME280;59568;52.128;5.434;2023-07-31T12:02:41;100642.13;;;17.86;100.00
71716;BME280;59568;52.128;5.434;2023-07-31T12:06:02;100656.44;;;17.85;100.00
71716;BME280;59568;52.128;5.434;2023-07-31T12:08:29;100657.31;;;17.89;100.00
71716;BME280;59568;52.128;5.434;2023-07-31T12:11:03;100658.09;;;17.89;100.00
71716;BME280;59568;52.128;5.434;2023-07-31T12:13:32;100652.97;;;17.96;100.00
71716;BME280;59568;52.128;5.434;2023-07-31T12:16:01;100662.97;;;18.03;100.00
71716;BME280;59568;52.128;5.434;2023-07-31T12:18:34;100660.91;;;18.12;100.00
71716;BME280;59568;52.128;5.434;2023-07-31T12:21:02;100652.56;;;18.26;100.00
71716;BME280;59568;52.128;5.434;2023-07-31T12:23:31;100661.63;;;18.25;100.00
71716;BME280;59568;52.128;5.434;2023-07-31T12:28:28;100653.25;;;18.23;100.00
71716;BME280;59568;52.128;5.434;2023-07-31T12:31:00;100637.81;;;18.25;100.00
71716;BME280;59568;52.128;5.434;2023-07-31T12:33:31;100644.63;;;18.26;100.00
71716;BME280;59568;52.128;5.434;2023-07-31T12:36:02;100628.09;;;18.29;100.00
71716;BME280;59568;52.128;5.434;2023-07-31T12:38:31;100630.38;;;18.31;100.00
71716;BME280;59568;52.128;5.434;2023-07-31T12:41:01;100629.59;;;18.30;100.00
71716;BME280;59568;52.128;5.434;2023-07-31T12:43:28;100615.81;;;18.21;100.00
71716;BME280;59568;52.128;5.434;2023-07-31T12:45:55;100624.94;;;18.24;100.00
71716;BME280;59568;52.128;5.434;2023-07-31T12:48:23;100625.25;;;18.22;100.00
71716;BME280;59568;52.128;5.434;2023-07-31T12:50:51;100630.22;;;18.24;100.00
71716;BME280;59568;52.128;5.434;2023-07-31T12:53:21;100622.63;;;18.22;100.00
71716;BME280;59568;52.128;5.434;2023-07-31T12:55:55;100626.28;;;18.17;100.00
71716;BME280;59568;52.128;5.434;2023-07-31T12:58:31;100619.53;;;18.20;100.00
71716;BME280;59568;52.128;5.434;2023-07-31T13:00:59;100611.38;;;18.25;100.00
71716;BME280;59568;52.128;5.434;2023-07-31T13:03:26;100618.34;;;18.33;100.00